Crymych, United Kingdom
Current Conditions -  °F | °C
As of 12:50 PM on Saturday 25 Oct 2014 (Local Time) from EGOP Reporting Station
Broken Clouds Broken Clouds  
Wind Chill: 12°   Ceiling: 2500
Heat Index: 12°   Visibility: 4mi
Dew Point: 11°   Wind: 32mph
Humidity: 94%   Direction: 250°WSW
Pressure: 30.03"   Gusts: NA
Location:  52.03°N, 4.68°W
Report Text: EGOP 251150Z AUTO 25028KT 6000 // BKN025/// SCT050/// 12/11 Q1017
Loading
Personal Weather Stations






























Interactive Weather Map
Tropical Storm Tracking
New forecast layout! Learn more

10-Day Weather Forecast

Advertisements
Track Severe Weather on mobile